Mayfield, Ohio
Current Conditions -  °F | °C
As of 12:45 PM on Thursday 27 Nov 2014 (Local Time) from KCGF Reporting Station
Broken Clouds Broken Clouds  
Wind Chill: 24°   Ceiling: 2000
Heat Index: 34°   Visibility: 15mi
Dew Point: 25°   Wind: 14mph
Humidity: 70%   Direction: 300°WNW
Pressure: 30.13"   Gusts: 23mph
Location:  41.5003°N, 81.466°W
Report Text: KCGF 271745Z 30012G20KT 15SM BKN020 BKN045 01/M04 A3013
Loading
Personal Weather Stations






























Interactive Weather Map New forecast layout! Learn more

10-Day Weather Forecast

Advertisements
Track Severe Weather on mobile